GMMEGMMH

Guest
Details From GMME - SALE
To GMMH - DAKHLA
Flight Number -
Tags decoded
Created
Modified
Stats Distance 791 nm / 1,465 km
Max Altitude 0 ft / 0 m
Waypoints 5
Social Downloads 1
Likes 0
Share VATSIM

Download

Looking for another format? Having issues loading an existing format? Contact us
Advertisement - Login to hide

Notes

Requested: GMME BSM4D BISMI UB11 MABAP UN869 ADM UA600 DKH GMMH Unmatched points: BSM4D UB11 MABAP UN869 UA600

Route

GMME BISMI ADM DKH GMMH

ID Type Via Altitude Latitude Longitude Leg Dist Tot Dist Heading (true) Name
O GMME APT - 0 ft / 0 m 34.05147˚ -6.75152˚ - 0 nm - SALE
BISMI FIX - 0 ft / 0 m 33.64721˚ -6.89351˚ 25 nm 25 nm 196° / 196° -
ADM VOR - 0 ft / 0 m 30.32194˚ -9.38333˚ 236 nm 261 nm 213° / 212° AGADIR VOR-DME
DKH VOR - 0 ft / 0 m 23.73977˚ -15.92632˚ 527 nm 789 nm 223° / 220° DAKHLA VOR-DME
O GMMH APT - 0 ft / 0 m 23.71829˚ -15.93199˚ 1 nm 790 nm 194° / 194° DAKHLA

Altitude Profile

Advertisement - Login to hide

Weather


0- 5 10 15 20 25 30 35+ Temperature / ° C

Clouds and Precipitation
Forecast for 2017-12-18 18:00 UTC. Updated 2 hours ago

Ground ~20,000 ft ~40,000 ft Winds

GMME

Details ICAO GMME (RBA)
Name SALE
Region Morocco
Timezone Africa/Casablanca (UTC+0.0)
Stats Elevation 276 ft / 84 m (AMSL)
Location 34.051468° -6.751519°
Runways 1
Magnetic Variation 1.549° W

METAR

GMME 181900Z 05003KT 340V080 CAVOK 09/06 Q1026 NOSIG

Decode

TAF

TAF GMME 181700Z 1818/1924 12008KT 6000 NSC BECMG 1909/1912 02008KT CAVOK

Decode

Departure Runways

ID Width Length Bearing (true) Bearing (mag) Surface Threshold Offset Overrun Length
04 148 ft / 45 m 11,503 ft / 3,506 m 31.24° 32.79° Asphalt 0 ft / 0 m 197 ft / 60 m
22 148 ft / 45 m 11,503 ft / 3,506 m 211.25° 212.80° Asphalt 0 ft / 0 m 197 ft / 60 m

GMMH

Details ICAO GMMH (VIL)
Name DAKHLA
Region Morocco
Timezone Africa/El_Aaiun (UTC+0.0)
Stats Elevation 36 ft / 11 m (AMSL)
Location 23.718294° -15.931993°
Runways 1
Magnetic Variation 5.266° W

METAR

GMMH 181900Z 02018KT 8000 NSC 19/15 Q1017 NOSIG

Decode

TAF

TAF GMMH 181700Z 1818/1924 03015KT 9999 FEW026= TAF GMMI 181700Z 1818/1924 VRB02KT CAVOK BECMG 1910/1912 04014KT

Decode

Destination Runways

ID Width Length Bearing (true) Bearing (mag) Surface Threshold Offset Overrun Length
03 148 ft / 45 m 9,886 ft / 3,013 m 22.66° 27.93° Asphalt 0 ft / 0 m 323 ft / 98 m
21 148 ft / 45 m 9,886 ft / 3,013 m 202.67° 207.94° Asphalt 0 ft / 0 m 377 ft / 115 m

Popular Alternatives